sensor_id;sensor_type;location;lat;lon;timestamp;P1;durP1;ratioP1;P2;durP2;ratioP2
27722;SDS011;15123;-37.794;175.246;2023-06-14T00:01:00;5.38;;;1.10;;
27722;SDS011;15123;-37.794;175.246;2023-06-14T00:04:43;3.50;;;1.10;;
27722;SDS011;15123;-37.794;175.246;2023-06-14T00:08:07;5.10;;;1.10;;
27722;SDS011;15123;-37.794;175.246;2023-06-14T00:11:44;3.95;;;1.10;;
27722;SDS011;15123;-37.794;175.246;2023-06-14T00:15:00;4.88;;;1.20;;
27722;SDS011;15123;-37.794;175.246;2023-06-14T00:18:25;4.93;;;1.10;;
27722;SDS011;15123;-37.794;175.246;2023-06-14T00:22:44;5.38;;;1.25;;
27722;SDS011;15123;-37.794;175.246;2023-06-14T00:26:25;3.95;;;1.02;;
27722;SDS011;15123;-37.794;175.246;2023-06-14T00:33:29;5.00;;;0.90;;
27722;SDS011;15123;-37.794;175.246;2023-06-14T00:37:13;4.63;;;0.80;;
27722;SDS011;15123;-37.794;175.246;2023-06-14T00:41:14;3.90;;;0.80;;
27722;SDS011;15123;-37.794;175.246;2023-06-14T00:44:55;3.75;;;0.77;;
27722;SDS011;15123;-37.794;175.246;2023-06-14T00:48:19;3.83;;;0.85;;
27722;SDS011;15123;-37.794;175.246;2023-06-14T00:52:00;5.50;;;1.02;;
27722;SDS011;15123;-37.794;175.246;2023-06-14T00:55:28;2.72;;;0.50;;
27722;SDS011;15123;-37.794;175.246;2023-06-14T00:59:10;1.60;;;0.43;;
27722;SDS011;15123;-37.794;175.246;2023-06-14T01:03:28;5.25;;;1.15;;
27722;SDS011;15123;-37.794;175.246;2023-06-14T01:18:59;1.92;;;0.60;;
27722;SDS011;15123;-37.794;175.246;2023-06-14T01:30:30;2.50;;;0.45;;
27722;SDS011;15123;-37.794;175.246;2023-06-14T01:34:13;2.45;;;0.50;;
27722;SDS011;15123;-37.794;175.246;2023-06-14T01:37:36;3.15;;;0.63;;
27722;SDS011;15123;-37.794;175.246;2023-06-14T01:41:36;2.28;;;0.40;;
27722;SDS011;15123;-37.794;175.246;2023-06-14T01:45:18;1.25;;;0.47;;
27722;SDS011;15123;-37.794;175.246;2023-06-14T01:53:17;2.47;;;0.50;;
27722;SDS011;15123;-37.794;175.246;2023-06-14T01:56:44;2.83;;;0.50;;
27722;SDS011;15123;-37.794;175.246;2023-06-14T02:00:25;1.35;;;0.40;;
27722;SDS011;15123;-37.794;175.246;2023-06-14T02:03:49;1.60;;;0.40;;
27722;SDS011;15123;-37.794;175.246;2023-06-14T02:07:30;1.75;;;0.40;;
27722;SDS011;15123;-37.794;175.246;2023-06-14T02:14:53;1.65;;;0.40;;
27722;SDS011;15123;-37.794;175.246;2023-06-14T02:18:31;2.55;;;0.70;;
27722;SDS011;15123;-37.794;175.246;2023-06-14T02:25:47;3.53;;;0.60;;
27722;SDS011;15123;-37.794;175.246;2023-06-14T02:33:10;1.65;;;0.40;;
27722;SDS011;15123;-37.794;175.246;2023-06-14T02:36:54;3.85;;;0.68;;
27722;SDS011;15123;-37.794;175.246;2023-06-14T02:44:19;1.65;;;0.50;;
27722;SDS011;15123;-37.794;175.246;2023-06-14T02:48:20;2.42;;;0.60;;
27722;SDS011;15123;-37.794;175.246;2023-06-14T02:51:44;2.13;;;0.40;;
27722;SDS011;15123;-37.794;175.246;2023-06-14T02:59:13;2.95;;;0.60;;
27722;SDS011;15123;-37.794;175.246;2023-06-14T03:03:14;2.95;;;0.60;;
27722;SDS011;15123;-37.794;175.246;2023-06-14T03:06:40;2.03;;;0.50;;
27722;SDS011;15123;-37.794;175.246;2023-06-14T03:10:08;2.10;;;0.47;;
27722;SDS011;15123;-37.794;175.246;2023-06-14T03:13:51;2.75;;;0.60;;
27722;SDS011;15123;-37.794;175.246;2023-06-14T03:17:32;2.03;;;0.40;;
27722;SDS011;15123;-37.794;175.246;2023-06-14T03:20:51;4.15;;;1.00;;
27722;SDS011;15123;-37.794;175.246;2023-06-14T03:28:13;1.40;;;0.40;;
27722;SDS011;15123;-37.794;175.246;2023-06-14T03:32:13;2.47;;;0.50;;
27722;SDS011;15123;-37.794;175.246;2023-06-14T03:35:57;4.15;;;1.10;;
27722;SDS011;15123;-37.794;175.246;2023-06-14T03:39:21;10.77;;;3.13;;
27722;SDS011;15123;-37.794;175.246;2023-06-14T03:47:05;51.50;;;27.90;;
27722;SDS011;15123;-37.794;175.246;2023-06-14T03:50:29;34.35;;;29.65;;
27722;SDS011;15123;-37.794;175.246;2023-06-14T03:53:53;15.20;;;11.18;;
27722;SDS011;15123;-37.794;175.246;2023-06-14T04:01:57;8.73;;;6.25;;
27722;SDS011;15123;-37.794;175.246;2023-06-14T04:05:21;9.82;;;3.70;;
27722;SDS011;15123;-37.794;175.246;2023-06-14T04:09:02;13.30;;;11.40;;
27722;SDS011;15123;-37.794;175.246;2023-06-14T04:12:44;9.55;;;5.22;;
27722;SDS011;15123;-37.794;175.246;2023-06-14T04:16:08;65.03;;;35.63;;
27722;SDS011;15123;-37.794;175.246;2023-06-14T04:23:37;3.30;;;0.90;;
27722;SDS011;15123;-37.794;175.246;2023-06-14T04:27:38;3.95;;;0.70;;
27722;SDS011;15123;-37.794;175.246;2023-06-14T04:31:03;2.30;;;0.60;;
27722;SDS011;15123;-37.794;175.246;2023-06-14T04:34:26;3.78;;;1.00;;
27722;SDS011;15123;-37.794;175.246;2023-06-14T04:38:07;4.80;;;1.23;;
27722;SDS011;15123;-37.794;175.246;2023-06-14T04:41:32;4.70;;;1.88;;
27722;SDS011;15123;-37.794;175.246;2023-06-14T04:52:49;9.23;;;3.72;;
27722;SDS011;15123;-37.794;175.246;2023-06-14T04:56:14;12.20;;;6.13;;
27722;SDS011;15123;-37.794;175.246;2023-06-14T04:59:59;10.48;;;5.35;;
27722;SDS011;15123;-37.794;175.246;2023-06-14T05:03:25;10.07;;;4.25;;
27722;SDS011;15123;-37.794;175.246;2023-06-14T05:07:08;14.55;;;7.03;;
27722;SDS011;15123;-37.794;175.246;2023-06-14T05:10:49;20.97;;;10.27;;
27722;SDS011;15123;-37.794;175.246;2023-06-14T05:14:30;16.30;;;8.90;;
27722;SDS011;15123;-37.794;175.246;2023-06-14T05:17:49;15.70;;;8.45;;
27722;SDS011;15123;-37.794;175.246;2023-06-14T05:21:50;16.60;;;7.78;;
27722;SDS011;15123;-37.794;175.246;2023-06-14T05:25:31;33.45;;;15.88;;
27722;SDS011;15123;-37.794;175.246;2023-06-14T05:28:55;35.17;;;14.48;;
27722;SDS011;15123;-37.794;175.246;2023-06-14T05:33:14;40.60;;;15.18;;
27722;SDS011;15123;-37.794;175.246;2023-06-14T05:44:17;115.85;;;29.45;;
27722;SDS011;15123;-37.794;175.246;2023-06-14T05:47:58;249.70;;;70.28;;
27722;SDS011;15123;-37.794;175.246;2023-06-14T05:51:22;183.23;;;54.03;;
27722;SDS011;15123;-37.794;175.246;2023-06-14T05:59:04;19.10;;;8.17;;
27722;SDS011;15123;-37.794;175.246;2023-06-14T06:02:46;27.60;;;9.93;;
27722;SDS011;15123;-37.794;175.246;2023-06-14T06:06:12;38.70;;;15.27;;
27722;SDS011;15123;-37.794;175.246;2023-06-14T06:09:54;30.30;;;12.70;;
27722;SDS011;15123;-37.794;175.246;2023-06-14T06:13:35;19.30;;;10.45;;
27722;SDS011;15123;-37.794;175.246;2023-06-14T06:16:59;19.52;;;11.18;;
27722;SDS011;15123;-37.794;175.246;2023-06-14T06:24:07;18.30;;;9.88;;
27722;SDS011;15123;-37.794;175.246;2023-06-14T06:27:44;33.95;;;19.35;;
27722;SDS011;15123;-37.794;175.246;2023-06-14T06:35:01;27.73;;;15.68;;
27722;SDS011;15123;-37.794;175.246;2023-06-14T06:39:02;20.55;;;9.82;;
27722;SDS011;15123;-37.794;175.246;2023-06-14T06:50:28;33.60;;;14.35;;
27722;SDS011;15123;-37.794;175.246;2023-06-14T06:53:54;34.25;;;16.27;;
27722;SDS011;15123;-37.794;175.246;2023-06-14T06:57:18;33.22;;;17.27;;
27722;SDS011;15123;-37.794;175.246;2023-06-14T07:05:00;47.00;;;23.38;;
27722;SDS011;15123;-37.794;175.246;2023-06-14T07:08:24;54.13;;;25.33;;
27722;SDS011;15123;-37.794;175.246;2023-06-14T07:11:47;56.47;;;26.23;;
27722;SDS011;15123;-37.794;175.246;2023-06-14T07:15:30;52.27;;;23.77;;
27722;SDS011;15123;-37.794;175.246;2023-06-14T07:23:12;47.50;;;23.23;;
27722;SDS011;15123;-37.794;175.246;2023-06-14T07:27:08;56.30;;;28.00;;
27722;SDS011;15123;-37.794;175.246;2023-06-14T07:30:27;54.15;;;27.80;;
27722;SDS011;15123;-37.794;175.246;2023-06-14T07:33:45;46.83;;;23.67;;
27722;SDS011;15123;-37.794;175.246;2023-06-14T07:37:09;36.65;;;20.52;;
27722;SDS011;15123;-37.794;175.246;2023-06-14T07:40:33;41.17;;;22.13;;
27722;SDS011;15123;-37.794;175.246;2023-06-14T07:43:56;44.88;;;24.52;;
27722;SDS011;15123;-37.794;175.246;2023-06-14T07:47:20;50.05;;;26.73;;
27722;SDS011;15123;-37.794;175.246;2023-06-14T07:50:44;52.28;;;24.35;;
27722;SDS011;15123;-37.794;175.246;2023-06-14T07:54:07;52.28;;;24.13;;
27722;SDS011;15123;-37.794;175.246;2023-06-14T07:57:32;55.35;;;24.10;;
27722;SDS011;15123;-37.794;175.246;2023-06-14T08:00:56;72.07;;;27.08;;
27722;SDS011;15123;-37.794;175.246;2023-06-14T08:04:21;83.13;;;29.77;;
27722;SDS011;15123;-37.794;175.246;2023-06-14T08:07:44;77.03;;;28.55;;
27722;SDS011;15123;-37.794;175.246;2023-06-14T08:11:08;64.63;;;24.83;;
27722;SDS011;15123;-37.794;175.246;2023-06-14T08:14:33;50.55;;;20.75;;
27722;SDS011;15123;-37.794;175.246;2023-06-14T08:18:07;38.25;;;16.77;;
27722;SDS011;15123;-37.794;175.246;2023-06-14T08:21:31;37.00;;;17.70;;
27722;SDS011;15123;-37.794;175.246;2023-06-14T08:24:54;42.72;;;17.08;;
27722;SDS011;15123;-37.794;175.246;2023-06-14T08:28:18;37.63;;;16.73;;
27722;SDS011;15123;-37.794;175.246;2023-06-14T08:31:41;43.97;;;18.85;;
27722;SDS011;15123;-37.794;175.246;2023-06-14T08:35:05;39.03;;;16.73;;
27722;SDS011;15123;-37.794;175.246;2023-06-14T08:38:30;40.55;;;18.10;;
27722;SDS011;15123;-37.794;175.246;2023-06-14T08:41:54;38.60;;;17.60;;
27722;SDS011;15123;-37.794;175.246;2023-06-14T08:45:33;43.90;;;18.50;;
27722;SDS011;15123;-37.794;175.246;2023-06-14T08:48:56;34.78;;;16.60;;
27722;SDS011;15123;-37.794;175.246;2023-06-14T08:52:22;39.78;;;18.08;;
27722;SDS011;15123;-37.794;175.246;2023-06-14T08:55:48;39.88;;;18.98;;
27722;SDS011;15123;-37.794;175.246;2023-06-14T08:59:11;46.20;;;21.20;;
27722;SDS011;15123;-37.794;175.246;2023-06-14T09:02:36;44.92;;;22.23;;
27722;SDS011;15123;-37.794;175.246;2023-06-14T09:05:59;40.45;;;19.73;;
27722;SDS011;15123;-37.794;175.246;2023-06-14T09:09:24;75.63;;;27.63;;
27722;SDS011;15123;-37.794;175.246;2023-06-14T09:12:48;75.57;;;27.60;;
27722;SDS011;15123;-37.794;175.246;2023-06-14T09:16:12;62.45;;;25.40;;
27722;SDS011;15123;-37.794;175.246;2023-06-14T09:19:36;46.88;;;21.92;;
27722;SDS011;15123;-37.794;175.246;2023-06-14T09:23:00;48.13;;;21.85;;
27722;SDS011;15123;-37.794;175.246;2023-06-14T09:26:23;60.03;;;24.58;;
27722;SDS011;15123;-37.794;175.246;2023-06-14T09:29:46;67.25;;;26.35;;
27722;SDS011;15123;-37.794;175.246;2023-06-14T09:33:10;64.30;;;26.08;;
27722;SDS011;15123;-37.794;175.246;2023-06-14T09:36:40;72.43;;;28.23;;
27722;SDS011;15123;-37.794;175.246;2023-06-14T09:40:04;44.17;;;20.75;;
27722;SDS011;15123;-37.794;175.246;2023-06-14T09:43:27;41.78;;;19.77;;
27722;SDS011;15123;-37.794;175.246;2023-06-14T09:46:55;39.13;;;19.50;;
27722;SDS011;15123;-37.794;175.246;2023-06-14T09:50:18;44.00;;;21.63;;
27722;SDS011;15123;-37.794;175.246;2023-06-14T09:53:42;36.90;;;20.13;;
27722;SDS011;15123;-37.794;175.246;2023-06-14T09:57:05;41.33;;;21.25;;
27722;SDS011;15123;-37.794;175.246;2023-06-14T10:00:32;38.42;;;19.95;;
27722;SDS011;15123;-37.794;175.246;2023-06-14T10:04:05;50.00;;;23.50;;
27722;SDS011;15123;-37.794;175.246;2023-06-14T10:07:28;46.72;;;22.67;;
27722;SDS011;15123;-37.794;175.246;2023-06-14T10:10:57;60.03;;;25.90;;
27722;SDS011;15123;-37.794;175.246;2023-06-14T10:14:20;69.40;;;28.45;;
27722;SDS011;15123;-37.794;175.246;2023-06-14T10:21:51;160.63;;;52.20;;
27722;SDS011;15123;-37.794;175.246;2023-06-14T10:25:26;150.02;;;50.55;;
27722;SDS011;15123;-37.794;175.246;2023-06-14T10:32:31;134.77;;;49.80;;
27722;SDS011;15123;-37.794;175.246;2023-06-14T10:36:06;125.60;;;45.65;;
27722;SDS011;15123;-37.794;175.246;2023-06-14T10:39:38;118.53;;;42.40;;
27722;SDS011;15123;-37.794;175.246;2023-06-14T10:46:46;112.95;;;40.33;;
27722;SDS011;15123;-37.794;175.246;2023-06-14T10:50:24;109.57;;;40.53;;
27722;SDS011;15123;-37.794;175.246;2023-06-14T10:57:13;94.05;;;35.53;;
27722;SDS011;15123;-37.794;175.246;2023-06-14T11:00:44;89.38;;;36.50;;
27722;SDS011;15123;-37.794;175.246;2023-06-14T11:04:09;85.68;;;35.60;;
27722;SDS011;15123;-37.794;175.246;2023-06-14T11:11:08;83.00;;;34.53;;
27722;SDS011;15123;-37.794;175.246;2023-06-14T11:14:31;84.40;;;33.47;;
27722;SDS011;15123;-37.794;175.246;2023-06-14T11:17:57;88.63;;;33.67;;
27722;SDS011;15123;-37.794;175.246;2023-06-14T11:21:24;88.68;;;36.63;;
27722;SDS011;15123;-37.794;175.246;2023-06-14T11:24:47;79.15;;;34.08;;
27722;SDS011;15123;-37.794;175.246;2023-06-14T11:28:12;80.82;;;36.13;;
27722;SDS011;15123;-37.794;175.246;2023-06-14T11:31:37;80.85;;;34.90;;
27722;SDS011;15123;-37.794;175.246;2023-06-14T11:35:00;84.55;;;33.67;;
27722;SDS011;15123;-37.794;175.246;2023-06-14T11:38:26;77.80;;;34.17;;
27722;SDS011;15123;-37.794;175.246;2023-06-14T11:41:50;80.68;;;34.72;;
27722;SDS011;15123;-37.794;175.246;2023-06-14T11:45:16;80.47;;;35.85;;
27722;SDS011;15123;-37.794;175.246;2023-06-14T11:48:43;86.20;;;36.40;;
27722;SDS011;15123;-37.794;175.246;2023-06-14T11:52:07;76.20;;;32.42;;
27722;SDS011;15123;-37.794;175.246;2023-06-14T11:55:29;79.18;;;32.70;;
27722;SDS011;15123;-37.794;175.246;2023-06-14T11:58:53;62.85;;;27.67;;
27722;SDS011;15123;-37.794;175.246;2023-06-14T12:02:17;66.10;;;29.60;;
27722;SDS011;15123;-37.794;175.246;2023-06-14T12:05:43;64.90;;;28.60;;
27722;SDS011;15123;-37.794;175.246;2023-06-14T12:09:07;52.40;;;23.88;;
27722;SDS011;15123;-37.794;175.246;2023-06-14T12:12:34;43.67;;;19.60;;
27722;SDS011;15123;-37.794;175.246;2023-06-14T12:15:59;32.75;;;15.77;;
27722;SDS011;15123;-37.794;175.246;2023-06-14T12:19:25;32.88;;;17.30;;
27722;SDS011;15123;-37.794;175.246;2023-06-14T12:22:55;54.08;;;22.10;;
27722;SDS011;15123;-37.794;175.246;2023-06-14T12:26:19;88.13;;;33.15;;
27722;SDS011;15123;-37.794;175.246;2023-06-14T12:29:42;99.07;;;36.97;;
27722;SDS011;15123;-37.794;175.246;2023-06-14T12:33:06;109.38;;;41.45;;
27722;SDS011;15123;-37.794;175.246;2023-06-14T12:36:30;109.25;;;42.47;;
27722;SDS011;15123;-37.794;175.246;2023-06-14T12:39:58;87.80;;;35.50;;
27722;SDS011;15123;-37.794;175.246;2023-06-14T12:43:23;70.72;;;28.13;;
27722;SDS011;15123;-37.794;175.246;2023-06-14T12:46:46;58.28;;;23.40;;
27722;SDS011;15123;-37.794;175.246;2023-06-14T12:50:10;66.85;;;26.35;;
27722;SDS011;15123;-37.794;175.246;2023-06-14T12:53:33;56.10;;;22.80;;
27722;SDS011;15123;-37.794;175.246;2023-06-14T12:56:58;54.47;;;21.92;;
27722;SDS011;15123;-37.794;175.246;2023-06-14T13:00:21;57.67;;;19.40;;
27722;SDS011;15123;-37.794;175.246;2023-06-14T13:03:49;59.47;;;18.90;;
27722;SDS011;15123;-37.794;175.246;2023-06-14T13:07:12;50.92;;;19.10;;
27722;SDS011;15123;-37.794;175.246;2023-06-14T13:10:35;46.85;;;16.90;;
27722;SDS011;15123;-37.794;175.246;2023-06-14T13:13:58;41.95;;;16.05;;
27722;SDS011;15123;-37.794;175.246;2023-06-14T13:17:31;25.20;;;10.85;;
27722;SDS011;15123;-37.794;175.246;2023-06-14T13:20:55;16.40;;;7.38;;
27722;SDS011;15123;-37.794;175.246;2023-06-14T13:24:19;13.52;;;6.78;;
27722;SDS011;15123;-37.794;175.246;2023-06-14T13:27:44;13.40;;;6.75;;
27722;SDS011;15123;-37.794;175.246;2023-06-14T13:31:10;18.13;;;8.70;;
27722;SDS011;15123;-37.794;175.246;2023-06-14T13:34:33;13.73;;;6.57;;
27722;SDS011;15123;-37.794;175.246;2023-06-14T13:37:57;15.05;;;6.38;;
27722;SDS011;15123;-37.794;175.246;2023-06-14T13:41:21;10.82;;;4.93;;
27722;SDS011;15123;-37.794;175.246;2023-06-14T13:44:47;12.93;;;5.22;;
27722;SDS011;15123;-37.794;175.246;2023-06-14T13:48:10;10.50;;;5.05;;
27722;SDS011;15123;-37.794;175.246;2023-06-14T13:51:34;11.07;;;5.05;;
27722;SDS011;15123;-37.794;175.246;2023-06-14T13:54:57;9.68;;;5.18;;
27722;SDS011;15123;-37.794;175.246;2023-06-14T13:58:20;12.23;;;5.40;;
27722;SDS011;15123;-37.794;175.246;2023-06-14T14:01:43;12.25;;;5.30;;
27722;SDS011;15123;-37.794;175.246;2023-06-14T14:05:07;16.48;;;7.85;;
27722;SDS011;15123;-37.794;175.246;2023-06-14T14:08:30;23.33;;;8.90;;
27722;SDS011;15123;-37.794;175.246;2023-06-14T14:11:56;23.48;;;8.55;;
27722;SDS011;15123;-37.794;175.246;2023-06-14T14:15:19;22.70;;;8.73;;
27722;SDS011;15123;-37.794;175.246;2023-06-14T14:18:45;26.30;;;9.50;;
27722;SDS011;15123;-37.794;175.246;2023-06-14T14:22:08;22.15;;;9.30;;
27722;SDS011;15123;-37.794;175.246;2023-06-14T14:25:31;18.45;;;9.40;;
27722;SDS011;15123;-37.794;175.246;2023-06-14T14:28:55;24.75;;;11.10;;
27722;SDS011;15123;-37.794;175.246;2023-06-14T14:32:18;29.05;;;11.55;;
27722;SDS011;15123;-37.794;175.246;2023-06-14T14:35:47;39.97;;;13.75;;
27722;SDS011;15123;-37.794;175.246;2023-06-14T14:39:09;35.33;;;14.70;;
27722;SDS011;15123;-37.794;175.246;2023-06-14T14:42:32;36.53;;;14.10;;
27722;SDS011;15123;-37.794;175.246;2023-06-14T14:45:56;31.75;;;11.65;;
27722;SDS011;15123;-37.794;175.246;2023-06-14T14:49:20;26.98;;;11.52;;
27722;SDS011;15123;-37.794;175.246;2023-06-14T14:52:43;24.52;;;9.60;;
27722;SDS011;15123;-37.794;175.246;2023-06-14T14:56:16;24.52;;;11.13;;
27722;SDS011;15123;-37.794;175.246;2023-06-14T14:59:40;25.40;;;10.02;;
27722;SDS011;15123;-37.794;175.246;2023-06-14T15:03:03;27.20;;;10.68;;
27722;SDS011;15123;-37.794;175.246;2023-06-14T15:06:27;23.50;;;9.88;;
27722;SDS011;15123;-37.794;175.246;2023-06-14T15:09:51;25.02;;;9.73;;
27722;SDS011;15123;-37.794;175.246;2023-06-14T15:13:14;21.77;;;7.70;;
27722;SDS011;15123;-37.794;175.246;2023-06-14T15:16:37;21.65;;;8.30;;
27722;SDS011;15123;-37.794;175.246;2023-06-14T15:20:00;18.25;;;7.22;;
27722;SDS011;15123;-37.794;175.246;2023-06-14T15:23:24;14.10;;;6.68;;
27722;SDS011;15123;-37.794;175.246;2023-06-14T15:26:47;13.10;;;5.85;;
27722;SDS011;15123;-37.794;175.246;2023-06-14T15:30:12;14.07;;;6.20;;
27722;SDS011;15123;-37.794;175.246;2023-06-14T15:33:35;13.73;;;6.20;;
27722;SDS011;15123;-37.794;175.246;2023-06-14T15:36:59;13.15;;;6.05;;
27722;SDS011;15123;-37.794;175.246;2023-06-14T15:40:23;15.05;;;6.72;;
27722;SDS011;15123;-37.794;175.246;2023-06-14T15:43:47;17.90;;;7.20;;
27722;SDS011;15123;-37.794;175.246;2023-06-14T15:47:13;13.75;;;5.28;;
27722;SDS011;15123;-37.794;175.246;2023-06-14T15:50:37;18.83;;;7.20;;
27722;SDS011;15123;-37.794;175.246;2023-06-14T15:54:01;16.88;;;6.07;;
27722;SDS011;15123;-37.794;175.246;2023-06-14T15:57:24;18.02;;;8.35;;
27722;SDS011;15123;-37.794;175.246;2023-06-14T16:00:47;14.85;;;5.28;;
27722;SDS011;15123;-37.794;175.246;2023-06-14T16:04:10;14.10;;;5.40;;
27722;SDS011;15123;-37.794;175.246;2023-06-14T16:07:33;11.75;;;5.35;;
27722;SDS011;15123;-37.794;175.246;2023-06-14T16:10:56;13.05;;;5.72;;
27722;SDS011;15123;-37.794;175.246;2023-06-14T16:14:19;9.43;;;4.47;;
27722;SDS011;15123;-37.794;175.246;2023-06-14T16:17:43;8.52;;;4.25;;
27722;SDS011;15123;-37.794;175.246;2023-06-14T16:21:08;8.60;;;4.00;;
27722;SDS011;15123;-37.794;175.246;2023-06-14T16:24:31;11.40;;;4.97;;
27722;SDS011;15123;-37.794;175.246;2023-06-14T16:27:56;12.95;;;5.55;;
27722;SDS011;15123;-37.794;175.246;2023-06-14T16:31:20;12.85;;;5.22;;
27722;SDS011;15123;-37.794;175.246;2023-06-14T16:34:43;10.52;;;4.68;;
27722;SDS011;15123;-37.794;175.246;2023-06-14T16:38:07;11.60;;;4.90;;
27722;SDS011;15123;-37.794;175.246;2023-06-14T16:41:29;9.68;;;4.47;;
27722;SDS011;15123;-37.794;175.246;2023-06-14T16:44:52;10.23;;;4.18;;
27722;SDS011;15123;-37.794;175.246;2023-06-14T16:48:17;8.15;;;3.20;;
27722;SDS011;15123;-37.794;175.246;2023-06-14T16:51:41;9.52;;;4.00;;
27722;SDS011;15123;-37.794;175.246;2023-06-14T16:55:06;8.23;;;3.45;;
27722;SDS011;15123;-37.794;175.246;2023-06-14T16:58:28;8.05;;;3.78;;
27722;SDS011;15123;-37.794;175.246;2023-06-14T17:01:51;8.63;;;3.88;;
27722;SDS011;15123;-37.794;175.246;2023-06-14T17:05:14;9.35;;;4.25;;
27722;SDS011;15123;-37.794;175.246;2023-06-14T17:08:37;7.40;;;3.30;;
27722;SDS011;15123;-37.794;175.246;2023-06-14T17:12:00;8.43;;;3.92;;
27722;SDS011;15123;-37.794;175.246;2023-06-14T17:15:23;7.78;;;3.40;;
27722;SDS011;15123;-37.794;175.246;2023-06-14T17:18:47;9.25;;;3.88;;
27722;SDS011;15123;-37.794;175.246;2023-06-14T17:22:11;18.63;;;7.40;;
27722;SDS011;15123;-37.794;175.246;2023-06-14T17:25:35;28.15;;;11.07;;
27722;SDS011;15123;-37.794;175.246;2023-06-14T17:28:58;37.15;;;16.42;;
27722;SDS011;15123;-37.794;175.246;2023-06-14T17:32:21;14.90;;;6.53;;
27722;SDS011;15123;-37.794;175.246;2023-06-14T17:35:44;10.13;;;5.18;;
27722;SDS011;15123;-37.794;175.246;2023-06-14T17:39:08;37.20;;;15.77;;
27722;SDS011;15123;-37.794;175.246;2023-06-14T17:42:34;10.73;;;5.03;;
27722;SDS011;15123;-37.794;175.246;2023-06-14T17:45:57;10.68;;;5.65;;
27722;SDS011;15123;-37.794;175.246;2023-06-14T17:49:21;11.90;;;6.13;;
27722;SDS011;15123;-37.794;175.246;2023-06-14T17:52:44;11.68;;;6.00;;
27722;SDS011;15123;-37.794;175.246;2023-06-14T17:56:07;9.43;;;5.70;;
27722;SDS011;15123;-37.794;175.246;2023-06-14T17:59:34;11.88;;;5.80;;
27722;SDS011;15123;-37.794;175.246;2023-06-14T18:02:58;13.85;;;6.40;;
27722;SDS011;15123;-37.794;175.246;2023-06-14T18:06:22;11.52;;;5.35;;
27722;SDS011;15123;-37.794;175.246;2023-06-14T18:09:46;14.40;;;7.03;;
27722;SDS011;15123;-37.794;175.246;2023-06-14T18:13:10;21.90;;;13.35;;
27722;SDS011;15123;-37.794;175.246;2023-06-14T18:16:34;10.85;;;5.53;;
27722;SDS011;15123;-37.794;175.246;2023-06-14T18:19:57;12.82;;;6.55;;
27722;SDS011;15123;-37.794;175.246;2023-06-14T18:23:21;12.73;;;6.45;;
27722;SDS011;15123;-37.794;175.246;2023-06-14T18:26:46;12.15;;;5.70;;
27722;SDS011;15123;-37.794;175.246;2023-06-14T18:30:09;12.40;;;6.45;;
27722;SDS011;15123;-37.794;175.246;2023-06-14T18:33:32;13.77;;;7.30;;
27722;SDS011;15123;-37.794;175.246;2023-06-14T18:36:55;14.85;;;8.68;;
27722;SDS011;15123;-37.794;175.246;2023-06-14T18:40:18;12.20;;;7.10;;
27722;SDS011;15123;-37.794;175.246;2023-06-14T18:43:42;13.38;;;7.43;;
27722;SDS011;15123;-37.794;175.246;2023-06-14T18:47:05;12.98;;;6.85;;
27722;SDS011;15123;-37.794;175.246;2023-06-14T18:50:29;12.93;;;6.15;;
27722;SDS011;15123;-37.794;175.246;2023-06-14T18:53:52;14.93;;;7.38;;
27722;SDS011;15123;-37.794;175.246;2023-06-14T18:57:16;20.70;;;9.30;;
27722;SDS011;15123;-37.794;175.246;2023-06-14T19:00:40;21.38;;;10.35;;
27722;SDS011;15123;-37.794;175.246;2023-06-14T19:04:03;24.10;;;10.88;;
27722;SDS011;15123;-37.794;175.246;2023-06-14T19:07:27;20.17;;;10.30;;
27722;SDS011;15123;-37.794;175.246;2023-06-14T19:10:50;17.33;;;8.27;;
27722;SDS011;15123;-37.794;175.246;2023-06-14T19:14:17;12.40;;;6.85;;
27722;SDS011;15123;-37.794;175.246;2023-06-14T19:17:40;12.93;;;6.97;;
27722;SDS011;15123;-37.794;175.246;2023-06-14T19:21:03;16.90;;;7.38;;
27722;SDS011;15123;-37.794;175.246;2023-06-14T19:24:26;14.48;;;6.88;;
27722;SDS011;15123;-37.794;175.246;2023-06-14T19:27:51;13.98;;;7.25;;
27722;SDS011;15123;-37.794;175.246;2023-06-14T19:31:15;14.73;;;7.05;;
27722;SDS011;15123;-37.794;175.246;2023-06-14T19:34:38;15.13;;;7.30;;
27722;SDS011;15123;-37.794;175.246;2023-06-14T19:38:02;16.15;;;8.00;;
27722;SDS011;15123;-37.794;175.246;2023-06-14T19:41:28;15.98;;;8.00;;
27722;SDS011;15123;-37.794;175.246;2023-06-14T19:44:53;13.95;;;7.35;;
27722;SDS011;15123;-37.794;175.246;2023-06-14T19:48:16;15.05;;;7.22;;
27722;SDS011;15123;-37.794;175.246;2023-06-14T19:51:40;26.38;;;13.05;;
27722;SDS011;15123;-37.794;175.246;2023-06-14T19:55:04;26.20;;;12.05;;
27722;SDS011;15123;-37.794;175.246;2023-06-14T19:58:27;16.40;;;8.15;;
27722;SDS011;15123;-37.794;175.246;2023-06-14T20:01:52;17.02;;;8.65;;
27722;SDS011;15123;-37.794;175.246;2023-06-14T20:05:16;15.35;;;7.30;;
27722;SDS011;15123;-37.794;175.246;2023-06-14T20:08:39;15.82;;;8.50;;
27722;SDS011;15123;-37.794;175.246;2023-06-14T20:12:04;13.85;;;7.72;;
27722;SDS011;15123;-37.794;175.246;2023-06-14T20:15:27;13.30;;;7.43;;
27722;SDS011;15123;-37.794;175.246;2023-06-14T20:18:50;14.35;;;6.82;;
27722;SDS011;15123;-37.794;175.246;2023-06-14T20:22:17;14.27;;;7.50;;
27722;SDS011;15123;-37.794;175.246;2023-06-14T20:25:41;15.27;;;7.35;;
27722;SDS011;15123;-37.794;175.246;2023-06-14T20:29:04;17.25;;;7.50;;
27722;SDS011;15123;-37.794;175.246;2023-06-14T20:32:29;13.13;;;7.45;;
27722;SDS011;15123;-37.794;175.246;2023-06-14T20:35:52;14.43;;;6.63;;
27722;SDS011;15123;-37.794;175.246;2023-06-14T20:39:15;13.50;;;5.57;;
27722;SDS011;15123;-37.794;175.246;2023-06-14T20:42:40;18.40;;;5.80;;
27722;SDS011;15123;-37.794;175.246;2023-06-14T20:46:05;26.50;;;11.07;;
27722;SDS011;15123;-37.794;175.246;2023-06-14T20:49:28;23.58;;;7.85;;
27722;SDS011;15123;-37.794;175.246;2023-06-14T20:52:51;10.50;;;5.40;;
27722;SDS011;15123;-37.794;175.246;2023-06-14T20:56:17;30.63;;;5.82;;
27722;SDS011;15123;-37.794;175.246;2023-06-14T20:59:41;16.85;;;6.03;;
27722;SDS011;15123;-37.794;175.246;2023-06-14T21:03:06;21.25;;;7.57;;
27722;SDS011;15123;-37.794;175.246;2023-06-14T21:06:30;32.17;;;11.20;;
27722;SDS011;15123;-37.794;175.246;2023-06-14T21:09:54;21.25;;;6.15;;
27722;SDS011;15123;-37.794;175.246;2023-06-14T21:13:16;20.88;;;6.75;;
27722;SDS011;15123;-37.794;175.246;2023-06-14T21:16:42;17.08;;;6.45;;
27722;SDS011;15123;-37.794;175.246;2023-06-14T21:20:07;27.05;;;7.57;;
27722;SDS011;15123;-37.794;175.246;2023-06-14T21:23:30;27.98;;;11.95;;
27722;SDS011;15123;-37.794;175.246;2023-06-14T21:26:53;26.02;;;7.28;;
27722;SDS011;15123;-37.794;175.246;2023-06-14T21:30:21;23.30;;;8.05;;
27722;SDS011;15123;-37.794;175.246;2023-06-14T21:33:54;20.08;;;7.47;;
27722;SDS011;15123;-37.794;175.246;2023-06-14T21:37:18;16.90;;;7.45;;
27722;SDS011;15123;-37.794;175.246;2023-06-14T21:40:43;15.27;;;7.07;;